Time;durP1;ratioP1;P1;durP2;ratioP2;P2;SDS_P1;SDS_P2;PMS_P1;PMS_P2;Temp;Humidity;BMP_temperature;BMP_pressure;BME280_temperature;BME280_humidity;BME280_pressure;Samples;Min_cycle;Max_cycle;Signal;HPM_P1;HPM_P2
2023/06/04 00:02:07;;;;;;;;;;;;;;;;;;5023177;28;4471;-60
2023/06/04 00:04:32;;;;;;;;;;;;;;;;;;5022618;28;5144;-58
2023/06/04 00:06:57;;;;;;;;;;;;;;;;;;5024849;28;4931;-60
2023/06/04 00:09:22;;;;;;;;;;;;;;;;;;5025176;28;3363;-60
2023/06/04 00:11:48;;;;;;;;;;;;;;;;;;5022861;28;4403;-59
2023/06/04 00:14:14;;;;;;;;;;;;;;;;;;5023250;28;4662;-59
2023/06/04 00:16:40;;;;;;;;;;;;;;;;;;5022124;28;4845;-59
2023/06/04 00:19:06;;;;;;;;;;;;;;;;;;5022390;28;4639;-58
2023/06/04 00:21:31;;;;;;;;;;;;;;;;;;5023977;28;4879;-58
2023/06/04 00:23:56;;;;;;;;;;;;;;;;;;5026451;28;3496;-59
2023/06/04 00:26:21;;;;;;;;;;;;;;;;;;5021658;28;4520;-59
2023/06/04 00:28:47;;;;;;;;;;;;;;;;;;5023202;28;5428;-59
2023/06/04 00:31:12;;;;;;;;;;;;;;;;;;5045049;28;4453;-59
2023/06/04 00:33:38;;;;;;;;;;;;;;;;;;5027541;28;5077;-58
2023/06/04 00:36:03;;;;;;;;;;;;;;;;;;5029674;28;3461;-59
2023/06/04 00:38:29;;;;;;;;;;;;;;;;;;5027149;28;5086;-59
2023/06/04 00:40:54;;;;;;;;;;;;;;;;;;5025223;28;5957;-58
2023/06/04 00:43:19;;;;;;;;;;;;;;;;;;5026449;28;4939;-58
2023/06/04 00:45:45;;;;;;;;;;;;;;;;;;5028240;28;4537;-58
2023/06/04 00:48:10;;;;;;;;;;;;;;;;;;5029086;28;3319;-60
2023/06/04 00:50:38;;;;;;;;;;;;;;;;;;5028992;28;5067;-59
2023/06/04 00:53:03;;;;;;;;;;;;;;;;;;5042959;28;4479;-59
2023/06/04 00:55:29;;;;;;;;;;;;;;;;;;5035160;28;4861;-59
2023/06/04 00:57:54;;;;;;;;;;;;;;;;;;5044550;28;4487;-58
2023/06/04 01:00:20;;;;;;;;;;;;;;;;;;5028897;28;3533;-59
2023/06/04 01:02:45;;;;;;;;;;;;;;;;;;5043062;28;5309;-59
2023/06/04 01:05:19;;;;;;;;;;;;;;;;;;5038352;28;4776;-60
2023/06/04 01:07:46;;;;;;;;;;;;;;;;;;5043111;28;4518;-59
2023/06/04 01:10:12;;;;;;;;;;;;;;;;;;5025255;28;4846;-59
2023/06/04 01:12:39;;;;;;;;;;;;;;;;;;5059481;28;4693;-59
2023/06/04 01:15:05;;;;;;;;;;;;;;;;;;5027074;28;3422;-59
2023/06/04 01:17:40;;;;;;;;;;;;;;;;;;5027466;28;4499;-59
2023/06/04 01:20:24;;;;;;;;;;;;;;;;;;5024311;28;5115;-59
2023/06/04 01:22:51;;;;;;;;;;;;;;;;;;5026755;28;4649;-59
2023/06/04 01:25:23;;;;;;;;;;;;;;;;;;5026078;28;4898;-59
2023/06/04 01:27:50;;;;;;;;;;;;;;;;;;5024566;28;4629;-59
2023/06/04 01:30:17;;;;;;;;;;;;;;;;;;5027178;28;3319;-60
2023/06/04 01:32:42;;;;;;;;;;;;;;;;;;5055938;28;5079;-60
2023/06/04 01:35:11;;;;;;;;;;;;;;;;;;5028486;28;5002;-59
2023/06/04 01:37:36;;;;;;;;;;;;;;;;;;5059098;28;4558;-60
2023/06/04 01:40:01;;;;;;;;;;;;;;;;;;5023853;28;5157;-60
2023/06/04 01:42:26;;;;;;;;;;;;;;;;;;5026981;28;3444;-59
2023/06/04 01:44:52;;;;;;;;;;;;;;;;;;5044963;28;4816;-58
2023/06/04 01:47:17;;;;;;;;;;;;;;;;;;5026619;28;4490;-60
2023/06/04 01:49:42;;;;;;;;;;;;;;;;;;5027592;28;5243;-59
2023/06/04 01:52:10;;;;;;;;;;;;;;;;;;5007487;28;4546;-59
2023/06/04 01:54:37;;;;;;;;;;;;;;;;;;5022741;28;4684;-60
2023/06/04 01:57:03;;;;;;;;;;;;;;;;;;5028315;28;3384;-59
2023/06/04 01:59:28;;;;;;;;;;;;;;;;;;5026832;28;5032;-60
2023/06/04 02:01:53;;;;;;;;;;;;;;;;;;5026787;28;6125;-59
2023/06/04 02:04:18;;;;;;;;;;;;;;;;;;5026927;28;4496;-59
2023/06/04 02:06:44;;;;;;;;;;;;;;;;;;5026735;28;4671;-60
2023/06/04 02:09:09;;;;;;;;;;;;;;;;;;5026693;28;3581;-59
2023/06/04 02:11:34;;;;;;;;;;;;;;;;;;5058055;28;4675;-60
2023/06/04 02:13:59;;;;;;;;;;;;;;;;;;5026056;28;4608;-59
2023/06/04 02:16:25;;;;;;;;;;;;;;;;;;5026943;28;5262;-58
2023/06/04 02:18:50;;;;;;;;;;;;;;;;;;5025430;28;4598;-59
2023/06/04 02:21:15;;;;;;;;;;;;;;;;;;5026641;28;3247;-59
2023/06/04 02:23:40;;;;;;;;;;;;;;;;;;5026657;28;5085;-58
2023/06/04 02:26:06;;;;;;;;;;;;;;;;;;5023792;28;4502;-58
2023/06/04 02:28:31;;;;;;;;;;;;;;;;;;5041139;28;4784;-60
2023/06/04 02:30:56;;;;;;;;;;;;;;;;;;5024666;28;4477;-60
2023/06/04 02:33:22;;;;;;;;;;;;;;;;;;5024084;28;3408;-59
2023/06/04 02:35:47;;;;;;;;;;;;;;;;;;5025469;28;4454;-59
2023/06/04 02:38:12;;;;;;;;;;;;;;;;;;5023648;28;5057;-60
2023/06/04 02:40:38;;;;;;;;;;;;;;;;;;5025034;28;5063;-59
2023/06/04 02:43:03;;;;;;;;;;;;;;;;;;5025893;28;5021;-59
2023/06/04 02:45:28;;;;;;;;;;;;;;;;;;5024385;28;4671;-59
2023/06/04 02:47:54;;;;;;;;;;;;;;;;;;5026934;28;3389;-58
2023/06/04 02:50:19;;;;;;;;;;;;;;;;;;5024852;28;4490;-59
2023/06/04 02:52:45;;;;;;;;;;;;;;;;;;5023371;28;5108;-58
2023/06/04 02:55:11;;;;;;;;;;;;;;;;;;5024378;28;4541;-60
2023/06/04 02:57:37;;;;;;;;;;;;;;;;;;5026362;28;4512;-59
2023/06/04 03:00:11;;;;;;;;;;;;;;;;;;5026167;28;3438;-57
2023/06/04 03:02:36;;;;;;;;;;;;;;;;;;5038068;28;4510;-59
2023/06/04 03:05:02;;;;;;;;;;;;;;;;;;5026069;28;4537;-58
2023/06/04 03:07:27;;;;;;;;;;;;;;;;;;5027148;28;5231;-58
2023/06/04 03:09:53;;;;;;;;;;;;;;;;;;5024666;28;5042;-59
2023/06/04 03:12:18;;;;;;;;;;;;;;;;;;5040057;28;3644;-59
2023/06/04 03:14:43;;;;;;;;;;;;;;;;;;5024482;28;4476;-59
2023/06/04 03:17:10;;;;;;;;;;;;;;;;;;5025060;28;4812;-59
2023/06/04 03:19:35;;;;;;;;;;;;;;;;;;5023757;28;4665;-60
2023/06/04 03:22:04;;;;;;;;;;;;;;;;;;5026385;28;5060;-58
2023/06/04 03:24:29;;;;;;;;;;;;;;;;;;5023208;28;5215;-59
2023/06/04 03:26:55;;;;;;;;;;;;;;;;;;5056585;28;3408;-59
2023/06/04 03:29:21;;;;;;;;;;;;;;;;;;5023919;28;4940;-59
2023/06/04 03:31:46;;;;;;;;;;;;;;;;;;5021438;28;4675;-58
2023/06/04 03:34:11;;;;;;;;;;;;;;;;;;5056619;28;5259;-59
2023/06/04 03:36:37;;;;;;;;;;;;;;;;;;5026307;28;5134;-58
2023/06/04 03:39:03;;;;;;;;;;;;;;;;;;5025519;28;4697;-59
2023/06/04 03:41:28;;;;;;;;;;;;;;;;;;5040644;28;4812;-60
2023/06/04 03:43:53;;;;;;;;;;;;;;;;;;5021896;28;5723;-59
2023/06/04 03:46:18;;;;;;;;;;;;;;;;;;5018947;28;4574;-60
2023/06/04 03:48:44;;;;;;;;;;;;;;;;;;5025530;28;4669;-60
2023/06/04 03:51:11;;;;;;;;;;;;;;;;;;5027593;28;987;-60
2023/06/04 03:53:36;;;;;;;;;;;;;;;;;;5026025;28;4500;-59
2023/06/04 03:56:01;;;;;;;;;;;;;;;;;;5027950;28;5108;-59
2023/06/04 03:58:28;;;;;;;;;;;;;;;;;;5024106;28;5577;-58
2023/06/04 04:00:53;;;;;;;;;;;;;;;;;;5026783;28;4449;-60
2023/06/04 04:03:19;;;;;;;;;;;;;;;;;;5026195;28;3251;-59
2023/06/04 04:05:44;;;;;;;;;;;;;;;;;;5025833;28;4500;-59
2023/06/04 04:08:09;;;;;;;;;;;;;;;;;;5028467;28;4496;-59
2023/06/04 04:10:35;;;;;;;;;;;;;;;;;;5029108;28;5115;-58
2023/06/04 04:13:00;;;;;;;;;;;;;;;;;;5028040;28;4656;-60
2023/06/04 04:15:25;;;;;;;;;;;;;;;;;;5030958;28;1067;-59
2023/06/04 04:17:52;;;;;;;;;;;;;;;;;;5029318;28;4536;-59
2023/06/04 04:20:18;;;;;;;;;;;;;;;;;;5029111;28;4808;-60
2023/06/04 04:22:43;;;;;;;;;;;;;;;;;;5047519;28;5192;-60
2023/06/04 04:25:09;;;;;;;;;;;;;;;;;;5028733;28;5082;-60
2023/06/04 04:27:38;;;;;;;;;;;;;;;;;;5029538;28;4471;-59
2023/06/04 04:30:04;;;;;;;;;;;;;;;;;;5029317;28;1025;-59
2023/06/04 04:32:30;;;;;;;;;;;;;;;;;;5022156;28;4464;-58
2023/06/04 04:34:57;;;;;;;;;;;;;;;;;;5028923;28;4481;-59
2023/06/04 04:37:22;;;;;;;;;;;;;;;;;;5046776;28;4997;-58
2023/06/04 04:39:47;;;;;;;;;;;;;;;;;;5028707;28;4798;-59
2023/06/04 04:42:14;;;;;;;;;;;;;;;;;;5029667;28;3264;-59
2023/06/04 04:44:39;;;;;;;;;;;;;;;;;;5028620;28;4611;-59
2023/06/04 04:47:04;;;;;;;;;;;;;;;;;;5029146;28;4692;-60
2023/06/04 04:49:29;;;;;;;;;;;;;;;;;;5028752;28;4828;-58
2023/06/04 04:51:55;;;;;;;;;;;;;;;;;;5027657;28;4522;-58
2023/06/04 04:54:20;;;;;;;;;;;;;;;;;;5029055;28;3128;-59
2023/06/04 04:56:45;;;;;;;;;;;;;;;;;;5026414;28;4478;-59
2023/06/04 04:59:11;;;;;;;;;;;;;;;;;;5029076;28;4735;-59
2023/06/04 05:01:36;;;;;;;;;;;;;;;;;;5027798;28;5238;-59
2023/06/04 05:04:01;;;;;;;;;;;;;;;;;;5029120;28;4555;-59
2023/06/04 05:06:26;;;;;;;;;;;;;;;;;;5030196;28;1285;-59
2023/06/04 05:08:52;;;;;;;;;;;;;;;;;;5029164;28;4418;-59
2023/06/04 05:11:17;;;;;;;;;;;;;;;;;;5027535;28;4832;-58
2023/06/04 05:13:42;;;;;;;;;;;;;;;;;;5028841;28;4490;-58
2023/06/04 05:16:07;;;;;;;;;;;;;;;;;;5027796;28;4665;-59
2023/06/04 05:18:44;;;;;;;;;;;;;;;;;;5027869;28;4639;-59
2023/06/04 05:21:11;;;;;;;;;;;;;;;;;;5029585;28;3137;-59
2023/06/04 05:23:37;;;;;;;;;;;;;;;;;;5027946;28;5128;-59
2023/06/04 05:26:02;;;;;;;;;;;;;;;;;;5026341;28;4667;-59
2023/06/04 05:28:28;;;;;;;;;;;;;;;;;;5028690;28;4504;-59
2023/06/04 05:30:58;;;;;;;;;;;;;;;;;;5026053;28;5016;-60
2023/06/04 05:33:24;;;;;;;;;;;;;;;;;;5023718;28;3245;-59
2023/06/04 05:35:49;;;;;;;;;;;;;;;;;;5046299;28;5084;-59
2023/06/04 05:38:20;;;;;;;;;;;;;;;;;;5026640;28;4502;-59
2023/06/04 05:40:46;;;;;;;;;;;;;;;;;;5023968;28;5281;-59
2023/06/04 05:43:11;;;;;;;;;;;;;;;;;;5028120;28;4678;-60
2023/06/04 05:45:36;;;;;;;;;;;;;;;;;;5027113;28;4554;-59
2023/06/04 05:48:02;;;;;;;;;;;;;;;;;;5043822;28;3273;-59
2023/06/04 05:50:27;;;;;;;;;;;;;;;;;;5027285;28;4830;-60
2023/06/04 05:52:53;;;;;;;;;;;;;;;;;;5026908;28;4788;-60
2023/06/04 05:55:19;;;;;;;;;;;;;;;;;;5027523;28;4457;-59
2023/06/04 05:57:44;;;;;;;;;;;;;;;;;;5026643;28;4628;-59
2023/06/04 06:00:10;;;;;;;;;;;;;;;;;;5027990;28;3350;-59
2023/06/04 06:02:35;;;;;;;;;;;;;;;;;;5025612;28;5006;-59
2023/06/04 06:05:01;;;;;;;;;;;;;;;;;;5027649;28;4910;-58
2023/06/04 06:07:26;;;;;;;;;;;;;;;;;;5042217;28;4499;-58
2023/06/04 06:09:52;;;;;;;;;;;;;;;;;;5026716;28;4558;-59
2023/06/04 06:12:17;;;;;;;;;;;;;;;;;;5029618;28;1331;-59
2023/06/04 06:14:42;;;;;;;;;;;;;;;;;;5026421;28;4458;-59
2023/06/04 06:17:07;;;;;;;;;;;;;;;;;;5026052;28;4592;-60
2023/06/04 06:19:33;;;;;;;;;;;;;;;;;;5024095;28;4523;-60
2023/06/04 06:21:58;;;;;;;;;;;;;;;;;;5023980;28;4498;-59
2023/06/04 06:24:24;;;;;;;;;;;;;;;;;;5041051;28;3367;-59
2023/06/04 06:26:49;;;;;;;;;;;;;;;;;;5025889;28;4446;-59
2023/06/04 06:29:14;;;;;;;;;;;;;;;;;;5022342;28;4638;-60
2023/06/04 06:31:40;;;;;;;;;;;;;;;;;;5018501;28;4472;-60
2023/06/04 06:34:05;;;;;;;;;;;;;;;;;;5021664;28;4650;-58
2023/06/04 06:36:32;;;;;;;;;;;;;;;;;;5022897;28;4843;-58
2023/06/04 06:38:57;;;;;;;;;;;;;;;;;;5024152;28;5153;-59
2023/06/04 06:41:23;;;;;;;;;;;;;;;;;;5023413;28;5008;-59
2023/06/04 06:43:48;;;;;;;;;;;;;;;;;;5029690;28;4634;-59
2023/06/04 06:46:13;;;;;;;;;;;;;;;;;;5025288;28;4544;-59
2023/06/04 06:48:38;;;;;;;;;;;;;;;;;;5024455;28;4672;-59
2023/06/04 06:51:04;;;;;;;;;;;;;;;;;;5029088;28;3644;-59
2023/06/04 06:53:29;;;;;;;;;;;;;;;;;;5026037;28;5018;-58
2023/06/04 06:55:54;;;;;;;;;;;;;;;;;;5023041;28;4761;-59
2023/06/04 06:58:21;;;;;;;;;;;;;;;;;;5041096;28;4707;-59
2023/06/04 07:00:46;;;;;;;;;;;;;;;;;;5024241;28;5017;-59
2023/06/04 07:03:12;;;;;;;;;;;;;;;;;;5026650;28;3264;-59
2023/06/04 07:05:38;;;;;;;;;;;;;;;;;;5049649;28;5027;-58
2023/06/04 07:08:03;;;;;;;;;;;;;;;;;;5022644;28;4752;-58
2023/06/04 07:10:29;;;;;;;;;;;;;;;;;;5023399;28;4541;-59
2023/06/04 07:12:54;;;;;;;;;;;;;;;;;;5025454;28;4508;-59
2023/06/04 07:15:20;;;;;;;;;;;;;;;;;;5056158;28;3486;-58
2023/06/04 07:17:45;;;;;;;;;;;;;;;;;;5023453;28;4585;-60
2023/06/04 07:20:10;;;;;;;;;;;;;;;;;;5023618;28;5087;-59
2023/06/04 07:22:37;;;;;;;;;;;;;;;;;;5024810;28;5223;-58
2023/06/04 07:25:03;;;;;;;;;;;;;;;;;;5025543;28;4517;-58
2023/06/04 07:27:28;;;;;;;;;;;;;;;;;;5024067;28;4818;-59
2023/06/04 07:29:53;;;;;;;;;;;;;;;;;;5025631;28;3326;-60
2023/06/04 07:32:19;;;;;;;;;;;;;;;;;;5022873;28;5568;-59
2023/06/04 07:34:44;;;;;;;;;;;;;;;;;;5025893;28;5176;-58
2023/06/04 07:37:09;;;;;;;;;;;;;;;;;;5023375;28;4532;-60
2023/06/04 07:39:35;;;;;;;;;;;;;;;;;;5025550;28;5123;-59
2023/06/04 07:42:00;;;;;;;;;;;;;;;;;;5025010;28;3488;-60
2023/06/04 07:44:25;;;;;;;;;;;;;;;;;;5026191;28;4717;-60
2023/06/04 07:46:50;;;;;;;;;;;;;;;;;;5033610;28;5024;-59
2023/06/04 07:49:17;;;;;;;;;;;;;;;;;;5025476;28;4603;-59
2023/06/04 07:51:42;;;;;;;;;;;;;;;;;;5024995;28;4686;-59
2023/06/04 07:54:07;;;;;;;;;;;;;;;;;;5024355;28;3322;-62
2023/06/04 07:56:32;;;;;;;;;;;;;;;;;;5022548;28;4497;-62
2023/06/04 07:58:58;;;;;;;;;;;;;;;;;;5022559;28;5066;-61
2023/06/04 08:01:23;;;;;;;;;;;;;;;;;;5025964;28;4528;-62
2023/06/04 08:03:49;;;;;;;;;;;;;;;;;;5024947;28;4510;-62
2023/06/04 08:06:14;;;;;;;;;;;;;;;;;;5022180;28;3387;-61
2023/06/04 08:08:45;;;;;;;;;;;;;;;;;;5022156;28;5002;-63
2023/06/04 08:11:10;;;;;;;;;;;;;;;;;;5022392;28;4898;-62
2023/06/04 08:13:35;;;;;;;;;;;;;;;;;;5023397;28;5005;-63
2023/06/04 08:16:00;;;;;;;;;;;;;;;;;;5023973;28;4639;-62
2023/06/04 08:18:26;;;;;;;;;;;;;;;;;;5023652;28;3617;-64
2023/06/04 08:20:51;;;;;;;;;;;;;;;;;;5024691;28;4427;-64
2023/06/04 08:23:16;;;;;;;;;;;;;;;;;;5038370;28;4505;-66
2023/06/04 08:25:41;;;;;;;;;;;;;;;;;;5021599;28;4468;-64
2023/06/04 08:28:07;;;;;;;;;;;;;;;;;;5023162;28;4501;-62
2023/06/04 08:30:35;;;;;;;;;;;;;;;;;;5019887;28;4617;-62
2023/06/04 08:33:01;;;;;;;;;;;;;;;;;;5018712;28;3357;-60
2023/06/04 08:35:26;;;;;;;;;;;;;;;;;;5022759;28;5092;-60
2023/06/04 08:37:51;;;;;;;;;;;;;;;;;;5023718;28;5183;-63
2023/06/04 08:40:17;;;;;;;;;;;;;;;;;;5010440;28;4955;-60
2023/06/04 08:42:44;;;;;;;;;;;;;;;;;;5023429;28;4573;-60
2023/06/04 08:45:11;;;;;;;;;;;;;;;;;;5023715;28;3372;-60
2023/06/04 08:47:36;;;;;;;;;;;;;;;;;;5024358;28;4745;-60
2023/06/04 08:50:01;;;;;;;;;;;;;;;;;;5027474;28;4729;-64
2023/06/04 08:52:26;;;;;;;;;;;;;;;;;;5026476;28;4598;-61
2023/06/04 08:54:52;;;;;;;;;;;;;;;;;;5039007;28;4506;-62
2023/06/04 08:57:18;;;;;;;;;;;;;;;;;;5026016;28;3412;-62
2023/06/04 08:59:44;;;;;;;;;;;;;;;;;;5025117;28;4669;-62
2023/06/04 09:02:10;;;;;;;;;;;;;;;;;;5025110;28;5042;-61
2023/06/04 09:04:35;;;;;;;;;;;;;;;;;;5039502;28;4483;-60
2023/06/04 09:07:03;;;;;;;;;;;;;;;;;;5038652;28;4693;-60
2023/06/04 09:09:29;;;;;;;;;;;;;;;;;;5023401;28;4708;-63
2023/06/04 09:11:55;;;;;;;;;;;;;;;;;;5039035;28;3496;-62
2023/06/04 09:14:20;;;;;;;;;;;;;;;;;;5023910;28;4519;-62
2023/06/04 09:16:49;;;;;;;;;;;;;;;;;;5025116;28;4529;-63
2023/06/04 09:19:15;;;;;;;;;;;;;;;;;;5054556;28;4549;-61
2023/06/04 09:21:49;;;;;;;;;;;;;;;;;;5025899;28;5111;-60
2023/06/04 09:24:14;;;;;;;;;;;;;;;;;;5022220;28;3514;-60
2023/06/04 09:26:41;;;;;;;;;;;;;;;;;;5023559;28;4519;-63
2023/06/04 09:29:10;;;;;;;;;;;;;;;;;;5037467;28;4802;-62
2023/06/04 09:31:39;;;;;;;;;;;;;;;;;;5039976;28;4591;-61
2023/06/04 09:34:05;;;;;;;;;;;;;;;;;;5034383;28;4533;-60
2023/06/04 09:36:32;;;;;;;;;;;;;;;;;;5028456;28;4718;-61
2023/06/04 09:38:57;;;;;;;;;;;;;;;;;;5025993;28;5011;-61
2023/06/04 09:41:23;;;;;;;;;;;;;;;;;;5027032;28;5079;-62
2023/06/04 09:43:49;;;;;;;;;;;;;;;;;;5024942;28;4936;-62
2023/06/04 09:46:15;;;;;;;;;;;;;;;;;;5040767;28;4477;-60
2023/06/04 09:48:41;;;;;;;;;;;;;;;;;;5023812;28;4727;-64
2023/06/04 09:51:15;;;;;;;;;;;;;;;;;;5059922;28;3693;-66
2023/06/04 09:53:40;;;;;;;;;;;;;;;;;;5023996;28;5082;-64
2023/06/04 09:56:10;;;;;;;;;;;;;;;;;;5026159;28;4674;-61
2023/06/04 09:58:36;;;;;;;;;;;;;;;;;;5037073;28;5165;-61
2023/06/04 10:01:04;;;;;;;;;;;;;;;;;;5039024;28;5095;-61
2023/06/04 10:03:30;;;;;;;;;;;;;;;;;;5021958;28;4621;-60
2023/06/04 10:05:56;;;;;;;;;;;;;;;;;;5024335;28;3458;-61
2023/06/04 10:08:21;;;;;;;;;;;;;;;;;;5036561;28;4519;-62
2023/06/04 10:10:47;;;;;;;;;;;;;;;;;;5025939;28;4513;-61
2023/06/04 10:13:15;;;;;;;;;;;;;;;;;;5038100;28;4522;-61
2023/06/04 10:15:40;;;;;;;;;;;;;;;;;;5022639;28;4493;-63
2023/06/04 10:18:05;;;;;;;;;;;;;;;;;;5040067;28;3520;-65
2023/06/04 10:20:31;;;;;;;;;;;;;;;;;;5039619;28;5019;-64
2023/06/04 10:22:57;;;;;;;;;;;;;;;;;;5025506;28;4505;-65
2023/06/04 10:25:22;;;;;;;;;;;;;;;;;;5023883;28;4484;-66
2023/06/04 10:27:48;;;;;;;;;;;;;;;;;;5058679;28;4481;-65
2023/06/04 10:30:13;;;;;;;;;;;;;;;;;;5027254;28;3516;-66
2023/06/04 10:32:38;;;;;;;;;;;;;;;;;;5022040;28;4525;-67
2023/06/04 10:35:07;;;;;;;;;;;;;;;;;;5038827;28;4909;-64
2023/06/04 10:37:40;;;;;;;;;;;;;;;;;;5049962;28;4668;-68
2023/06/04 10:40:08;;;;;;;;;;;;;;;;;;5023703;28;5121;-67
2023/06/04 10:42:45;;;;;;;;;;;;;;;;;;5013537;28;4617;-67
2023/06/04 10:45:16;;;;;;;;;;;;;;;;;;5055067;28;3465;-66
2023/06/04 10:47:43;;;;;;;;;;;;;;;;;;5042468;28;5158;-66
2023/06/04 10:50:12;;;;;;;;;;;;;;;;;;5025377;28;5082;-65
2023/06/04 10:52:39;;;;;;;;;;;;;;;;;;5023362;28;5026;-66
2023/06/04 10:55:08;;;;;;;;;;;;;;;;;;5023527;28;5235;-68
2023/06/04 10:57:33;;;;;;;;;;;;;;;;;;5025179;28;5034;-67
2023/06/04 10:59:59;;;;;;;;;;;;;;;;;;5025322;28;3616;-68
2023/06/04 11:02:25;;;;;;;;;;;;;;;;;;5048545;28;5004;-67
2023/06/04 11:05:05;;;;;;;;;;;;;;;;;;5027641;28;4616;-69
2023/06/04 11:07:40;;;;;;;;;;;;;;;;;;5025217;28;4923;-69
2023/06/04 11:10:05;;;;;;;;;;;;;;;;;;5032681;28;5049;-69
2023/06/04 11:12:40;;;;;;;;;;;;;;;;;;5059476;28;4442;-66
2023/06/04 11:15:11;;;;;;;;;;;;;;;;;;5029081;28;1190;-66
2023/06/04 11:17:36;;;;;;;;;;;;;;;;;;5026065;28;4654;-66
2023/06/04 11:20:02;;;;;;;;;;;;;;;;;;5024073;28;5107;-69
2023/06/04 11:22:28;;;;;;;;;;;;;;;;;;5023003;28;4504;-68
2023/06/04 11:24:58;;;;;;;;;;;;;;;;;;5026817;28;4472;-66
2023/06/04 11:27:24;;;;;;;;;;;;;;;;;;5059066;28;1517;-67
2023/06/04 11:29:50;;;;;;;;;;;;;;;;;;5026095;28;4585;-66
2023/06/04 11:32:22;;;;;;;;;;;;;;;;;;5057881;28;4620;-67
2023/06/04 11:34:47;;;;;;;;;;;;;;;;;;5027274;28;5213;-66
2023/06/04 11:37:13;;;;;;;;;;;;;;;;;;5026211;28;5123;-68
2023/06/04 11:39:39;;;;;;;;;;;;;;;;;;5042287;28;5052;-66
2023/06/04 11:42:05;;;;;;;;;;;;;;;;;;5027314;28;1101;-67
2023/06/04 11:44:31;;;;;;;;;;;;;;;;;;5026458;28;4445;-66
2023/06/04 11:46:56;;;;;;;;;;;;;;;;;;5040753;28;4656;-69
2023/06/04 11:49:21;;;;;;;;;;;;;;;;;;5012069;28;5211;-65
2023/06/04 11:51:47;;;;;;;;;;;;;;;;;;5021955;28;4964;-64
2023/06/04 11:54:12;;;;;;;;;;;;;;;;;;5026919;28;1172;-66
2023/06/04 11:56:38;;;;;;;;;;;;;;;;;;5014518;28;4492;-67
2023/06/04 11:59:03;;;;;;;;;;;;;;;;;;5015853;28;4594;-66
2023/06/04 12:01:32;;;;;;;;;;;;;;;;;;5024146;28;4514;-64
2023/06/04 12:03:57;;;;;;;;;;;;;;;;;;5026389;28;4485;-66
2023/06/04 12:06:23;;;;;;;;;;;;;;;;;;5023428;28;3076;-66
2023/06/04 12:08:48;;;;;;;;;;;;;;;;;;5024373;28;4428;-65
2023/06/04 12:11:33;;;;;;;;;;;;;;;;;;5040518;28;5316;-67
2023/06/04 12:13:58;;;;;;;;;;;;;;;;;;5021893;28;4461;-62
2023/06/04 12:16:24;;;;;;;;;;;;;;;;;;5022467;28;5053;-67
2023/06/04 12:18:50;;;;;;;;;;;;;;;;;;5026107;28;4694;-66
2023/06/04 12:21:28;;;;;;;;;;;;;;;;;;5027696;28;3365;-68
2023/06/04 12:24:15;;;;;;;;;;;;;;;;;;5040807;28;5088;-66
2023/06/04 12:26:41;;;;;;;;;;;;;;;;;;5027403;28;4670;-67
2023/06/04 12:29:16;;;;;;;;;;;;;;;;;;5027214;28;4684;-68
2023/06/04 12:31:57;;;;;;;;;;;;;;;;;;5039947;28;5073;-64
2023/06/04 12:34:22;;;;;;;;;;;;;;;;;;5027014;28;5202;-67
2023/06/04 12:36:48;;;;;;;;;;;;;;;;;;5030440;28;4899;-64
2023/06/04 12:39:13;;;;;;;;;;;;;;;;;;5027775;28;4819;-66
2023/06/04 12:41:38;;;;;;;;;;;;;;;;;;5024149;28;5462;-63
2023/06/04 12:44:04;;;;;;;;;;;;;;;;;;5043106;28;4507;-66
2023/06/04 12:46:29;;;;;;;;;;;;;;;;;;5025203;28;4659;-70
2023/06/04 12:48:55;;;;;;;;;;;;;;;;;;5028585;28;5662;-67
2023/06/04 12:51:20;;;;;;;;;;;;;;;;;;5025274;28;3637;-72
2023/06/04 12:53:45;;;;;;;;;;;;;;;;;;5027038;28;5036;-71
2023/06/04 12:56:11;;;;;;;;;;;;;;;;;;5029680;28;4536;-73
2023/06/04 12:58:36;;;;;;;;;;;;;;;;;;5029881;28;4454;-69
2023/06/04 13:01:01;;;;;;;;;;;;;;;;;;5024483;28;4583;-69
2023/06/04 13:03:29;;;;;;;;;;;;;;;;;;5032086;28;3466;-68
2023/06/04 13:05:55;;;;;;;;;;;;;;;;;;5024697;28;6349;-69
2023/06/04 13:08:23;;;;;;;;;;;;;;;;;;5025963;28;5039;-63
2023/06/04 13:10:49;;;;;;;;;;;;;;;;;;5028769;28;4786;-63
2023/06/04 13:13:17;;;;;;;;;;;;;;;;;;5027753;28;5199;-64
2023/06/04 13:15:43;;;;;;;;;;;;;;;;;;5027107;28;4650;-62
2023/06/04 13:18:11;;;;;;;;;;;;;;;;;;5023836;28;3659;-64
2023/06/04 13:20:36;;;;;;;;;;;;;;;;;;5027874;28;4601;-63
2023/06/04 13:23:02;;;;;;;;;;;;;;;;;;5027314;28;4536;-63
2023/06/04 13:25:28;;;;;;;;;;;;;;;;;;5027310;28;4702;-63
2023/06/04 13:27:53;;;;;;;;;;;;;;;;;;5024758;28;5030;-67
2023/06/04 13:30:20;;;;;;;;;;;;;;;;;;5026692;28;3487;-67
2023/06/04 13:32:45;;;;;;;;;;;;;;;;;;5027454;28;4881;-70
2023/06/04 13:35:10;;;;;;;;;;;;;;;;;;5025179;28;4585;-70
2023/06/04 13:37:35;;;;;;;;;;;;;;;;;;5025358;28;4498;-70
2023/06/04 13:40:01;;;;;;;;;;;;;;;;;;5028519;28;4768;-70
2023/06/04 13:42:26;;;;;;;;;;;;;;;;;;5028084;28;3323;-71
2023/06/04 13:44:51;;;;;;;;;;;;;;;;;;5026538;28;4988;-69
2023/06/04 13:47:18;;;;;;;;;;;;;;;;;;5025515;28;5072;-69
2023/06/04 13:49:43;;;;;;;;;;;;;;;;;;5029207;28;5005;-66
2023/06/04 13:52:08;;;;;;;;;;;;;;;;;;5060639;28;4783;-67
2023/06/04 13:54:33;;;;;;;;;;;;;;;;;;5028641;28;4686;-68
2023/06/04 13:57:02;;;;;;;;;;;;;;;;;;5028051;28;3296;-68
2023/06/04 13:59:27;;;;;;;;;;;;;;;;;;5028148;28;5059;-68
2023/06/04 14:01:52;;;;;;;;;;;;;;;;;;5026371;28;4503;-67
2023/06/04 14:04:18;;;;;;;;;;;;;;;;;;5027992;28;4445;-67
2023/06/04 14:06:44;;;;;;;;;;;;;;;;;;5027527;28;4504;-67
2023/06/04 14:09:11;;;;;;;;;;;;;;;;;;5027143;28;1914;-67
2023/06/04 14:11:39;;;;;;;;;;;;;;;;;;5015175;28;6777;-66
2023/06/04 14:14:04;;;;;;;;;;;;;;;;;;5022667;28;5109;-67
2023/06/04 14:16:29;;;;;;;;;;;;;;;;;;5021173;28;4507;-66
2023/06/04 14:18:54;;;;;;;;;;;;;;;;;;5027008;28;5074;-68
2023/06/04 14:21:20;;;;;;;;;;;;;;;;;;5026171;28;3525;-67
2023/06/04 14:23:46;;;;;;;;;;;;;;;;;;5025708;28;5281;-67
2023/06/04 14:26:11;;;;;;;;;;;;;;;;;;5040825;28;4885;-67
2023/06/04 14:28:37;;;;;;;;;;;;;;;;;;5026122;28;5414;-67
2023/06/04 14:31:02;;;;;;;;;;;;;;;;;;5024468;28;4696;-67
2023/06/04 14:33:28;;;;;;;;;;;;;;;;;;5026954;28;4656;-66
2023/06/04 14:35:53;;;;;;;;;;;;;;;;;;5023986;28;3349;-68
2023/06/04 14:38:18;;;;;;;;;;;;;;;;;;5026913;28;4694;-67
2023/06/04 14:40:44;;;;;;;;;;;;;;;;;;5025854;28;4516;-67
2023/06/04 14:43:12;;;;;;;;;;;;;;;;;;5025996;28;4576;-68
2023/06/04 14:45:37;;;;;;;;;;;;;;;;;;5040783;28;5717;-68
2023/06/04 14:48:03;;;;;;;;;;;;;;;;;;5042433;28;3523;-67
2023/06/04 14:50:29;;;;;;;;;;;;;;;;;;5022610;28;4729;-67
2023/06/04 14:52:58;;;;;;;;;;;;;;;;;;5034708;28;4521;-67
2023/06/04 14:55:24;;;;;;;;;;;;;;;;;;5029989;28;5188;-67
2023/06/04 14:57:50;;;;;;;;;;;;;;;;;;5040286;28;4486;-66
2023/06/04 15:00:15;;;;;;;;;;;;;;;;;;5023987;28;3600;-69
2023/06/04 15:02:41;;;;;;;;;;;;;;;;;;5020746;28;5451;-68
2023/06/04 15:05:06;;;;;;;;;;;;;;;;;;5023058;28;4873;-68
2023/06/04 15:07:32;;;;;;;;;;;;;;;;;;5037189;28;5132;-67
2023/06/04 15:09:57;;;;;;;;;;;;;;;;;;5021125;28;4552;-68
2023/06/04 15:12:22;;;;;;;;;;;;;;;;;;5018739;28;3631;-67
2023/06/04 15:14:48;;;;;;;;;;;;;;;;;;5021025;28;4459;-68
2023/06/04 15:17:13;;;;;;;;;;;;;;;;;;5022236;28;5039;-68
2023/06/04 15:19:39;;;;;;;;;;;;;;;;;;5022844;28;5642;-67
2023/06/04 15:22:04;;;;;;;;;;;;;;;;;;5022346;28;4667;-62
2023/06/04 15:24:29;;;;;;;;;;;;;;;;;;5018618;28;4678;-65
2023/06/04 15:26:55;;;;;;;;;;;;;;;;;;5022015;28;3580;-61
2023/06/04 15:29:20;;;;;;;;;;;;;;;;;;5008757;28;4846;-58
2023/06/04 15:31:46;;;;;;;;;;;;;;;;;;5019416;28;5193;-60
2023/06/04 15:34:11;;;;;;;;;;;;;;;;;;5019295;28;5178;-58
2023/06/04 15:36:37;;;;;;;;;;;;;;;;;;5020854;28;4695;-60
2023/06/04 15:39:03;;;;;;;;;;;;;;;;;;5017984;28;3337;-59
2023/06/04 15:41:29;;;;;;;;;;;;;;;;;;5019009;28;4730;-59
2023/06/04 15:43:54;;;;;;;;;;;;;;;;;;5018548;28;4891;-58
2023/06/04 15:46:22;;;;;;;;;;;;;;;;;;5022017;28;4529;-59
2023/06/04 15:48:47;;;;;;;;;;;;;;;;;;5022376;28;4810;-56
2023/06/04 15:51:12;;;;;;;;;;;;;;;;;;5021467;28;3817;-57
2023/06/04 15:53:38;;;;;;;;;;;;;;;;;;5019791;28;4492;-63
2023/06/04 15:56:03;;;;;;;;;;;;;;;;;;5019299;28;4513;-68
2023/06/04 15:58:28;;;;;;;;;;;;;;;;;;5019668;28;4479;-70
2023/06/04 16:00:54;;;;;;;;;;;;;;;;;;5035961;28;4862;-67
2023/06/04 16:03:19;;;;;;;;;;;;;;;;;;5021282;28;3364;-66
2023/06/04 16:05:44;;;;;;;;;;;;;;;;;;5021572;28;4451;-65
2023/06/04 16:08:10;;;;;;;;;;;;;;;;;;5018034;28;4807;-63
2023/06/04 16:10:35;;;;;;;;;;;;;;;;;;5017953;28;4851;-61
2023/06/04 16:13:00;;;;;;;;;;;;;;;;;;5024462;28;4499;-60
2023/06/04 16:15:25;;;;;;;;;;;;;;;;;;5022230;28;3328;-59
2023/06/04 16:17:51;;;;;;;;;;;;;;;;;;5014828;28;4813;-58
2023/06/04 16:20:16;;;;;;;;;;;;;;;;;;5020576;28;5560;-60
2023/06/04 16:22:41;;;;;;;;;;;;;;;;;;5017373;28;4513;-59
2023/06/04 16:25:07;;;;;;;;;;;;;;;;;;5021603;28;4483;-59
2023/06/04 16:27:33;;;;;;;;;;;;;;;;;;5021632;28;4663;-59
2023/06/04 16:29:58;;;;;;;;;;;;;;;;;;5027681;28;3757;-59
2023/06/04 16:32:23;;;;;;;;;;;;;;;;;;5013982;28;4658;-59
2023/06/04 16:34:48;;;;;;;;;;;;;;;;;;5019948;28;4644;-60
2023/06/04 16:37:14;;;;;;;;;;;;;;;;;;5013780;28;4687;-58
2023/06/04 16:39:39;;;;;;;;;;;;;;;;;;5018363;28;4672;-68
2023/06/04 16:42:04;;;;;;;;;;;;;;;;;;5023100;28;3601;-68
2023/06/04 16:44:30;;;;;;;;;;;;;;;;;;5022048;28;5004;-68
2023/06/04 16:46:55;;;;;;;;;;;;;;;;;;5052486;28;4707;-67
2023/06/04 16:49:21;;;;;;;;;;;;;;;;;;5020234;28;5183;-68
2023/06/04 16:51:46;;;;;;;;;;;;;;;;;;5022061;28;4506;-66
2023/06/04 16:54:11;;;;;;;;;;;;;;;;;;5020043;28;3710;-67
2023/06/04 16:56:37;;;;;;;;;;;;;;;;;;5019441;28;5030;-67